Terminal Aerodrome Forecast
Issued by NWS Shreveport, LA

Home | Current Version | Previous Version | Text Only | Print | Product List | Glossary On
Versions: 1 2 3 4 5 6 7 8 9 10 11 12 13 14 15 16 17 18 19 20 21 22 23 24
000
FTUS44 KSHV 230534
TAFSHV
TAF
KSHV 230534Z 2306/2406 12005KT P6SM SCT025 BKN100
      TEMPO 2311/2313 BKN015
     FM231300 12006KT P6SM OVC015
     FM231800 15008KT P6SM BKN035
     FM232100 14010KT P6SM VCSH OVC035=

USA.gov is the U.S. government's official web portal to all federal, state and local government web resources and services.